Map

Track Data

SID SEASON NUMBER BASIN SUBBASIN NAME ISO_TIME NATURE LAT LON WMO_WIND WMO_PRES WMO_AGENCY TRACK_TYPE DIST2LAND LANDFALL IFLAG USA_AGENCY USA_ATCF_ID USA_LAT USA_LON USA_RECORD USA_STATUS USA_WIND USA_PRES USA_SSHS USA_R34_NE USA_R34_SE USA_R34_SW USA_R34_NW USA_R50_NE USA_R50_SE USA_R50_SW USA_R50_NW USA_R64_NE USA_R64_SE USA_R64_SW USA_R64_NW USA_POCI USA_ROCI USA_RMW USA_EYE TOKYO_LAT TOKYO_LON TOKYO_GRADE TOKYO_WIND TOKYO_PRES TOKYO_R50_DIR TOKYO_R50_LONG TOKYO_R50_SHORT TOKYO_R30_DIR TOKYO_R30_LONG TOKYO_R30_SHORT TOKYO_LAND CMA_LAT CMA_LON CMA_CAT CMA_WIND CMA_PRES HKO_LAT HKO_LON HKO_CAT HKO_WIND HKO_PRES NEWDELHI_LAT NEWDELHI_LON NEWDELHI_GRADE NEWDELHI_WIND NEWDELHI_PRES NEWDELHI_CI NEWDELHI_DP NEWDELHI_POCI REUNION_LAT REUNION_LON REUNION_TYPE REUNION_WIND REUNION_PRES REUNION_TNUM REUNION_CI REUNION_RMW REUNION_R34_NE REUNION_R34_SE REUNION_R34_SW REUNION_R34_NW REUNION_R50_NE REUNION_R50_SE REUNION_R50_SW REUNION_R50_NW REUNION_R64_NE REUNION_R64_SE REUNION_R64_SW REUNION_R64_NW BOM_LAT BOM_LON BOM_TYPE BOM_WIND BOM_PRES BOM_TNUM BOM_CI BOM_RMW BOM_R34_NE BOM_R34_SE BOM_R34_SW BOM_R34_NW BOM_R50_NE BOM_R50_SE BOM_R50_SW BOM_R50_NW BOM_R64_NE BOM_R64_SE BOM_R64_SW BOM_R64_NW BOM_ROCI BOM_POCI BOM_EYE BOM_POS_METHOD BOM_PRES_METHOD NADI_LAT NADI_LON NADI_CAT NADI_WIND NADI_PRES WELLINGTON_LAT WELLINGTON_LON WELLINGTON_WIND WELLINGTON_PRES DS824_LAT DS824_LON DS824_STAGE DS824_WIND DS824_PRES TD9636_LAT TD9636_LON TD9636_STAGE TD9636_WIND TD9636_PRES TD9635_LAT TD9635_LON TD9635_WIND TD9635_PRES TD9635_ROCI NEUMANN_LAT NEUMANN_LON NEUMANN_CLASS NEUMANN_WIND NEUMANN_PRES MLC_LAT MLC_LON MLC_CLASS MLC_WIND MLC_PRES USA_GUST BOM_GUST BOM_GUST_PER REUNION_GUST REUNION_GUST_PER USA_SEAHGT USA_SEARAD_NE USA_SEARAD_SE USA_SEARAD_SW USA_SEARAD_NW STORM_SPEED STORM_DIR
1931215N17132 1931 22 WP MM NOT_NAMED 1931-08-03 10:00:00 NR 17.3000 131.700 main 869 828 __________O___ -1 17.3000 131.700 7 19 295
1931215N17132 1931 22 WP MM NOT_NAMED 1931-08-03 12:00:00 NR 17.5645 131.110 main 828 764 __________P___ -1 17.5645 131.110 7 18 295
1931215N17132 1931 22 WP MM NOT_NAMED 1931-08-03 15:00:00 NR 17.9479 130.250 main 764 734 __________P___ -1 17.9479 130.250 7 17 295
1931215N17132 1931 22 WP MM NOT_NAMED 1931-08-03 18:00:00 NR 18.3012 129.461 main 734 685 __________P___ -1 18.3012 129.461 7 15 296
1931215N17132 1931 22 WP MM NOT_NAMED 1931-08-03 21:00:00 NR 18.6096 128.790 main 685 665 __________P___ -1 18.6096 128.790 7 14 296
1931215N17132 1931 22 WP MM NOT_NAMED 1931-08-03 22:00:00 NR 18.7000 128.600 main 665 633 __________O___ -1 18.7000 128.600 7 11 297
1931215N17132 1931 22 WP MM NOT_NAMED 1931-08-04 00:00:00 NR 18.8615 128.278 main 634 594 __________P___ -1 18.8615 128.278 7 9 300
1931215N17132 1931 22 WP MM NOT_NAMED 1931-08-04 03:00:00 NR 19.0730 127.921 main 594 575 __________P___ -1 19.0730 127.921 7 7 307
1931215N17132 1931 22 WP MM NOT_NAMED 1931-08-04 06:00:00 NR 19.2782 127.686 main 577 560 __________P___ -1 19.2782 127.686 7 6 320
1931215N17132 1931 22 WP MM NOT_NAMED 1931-08-04 09:00:00 NR 19.5107 127.537 main 560 560 __________P___ -1 19.5107 127.537 7 6 331
1931215N17132 1931 22 WP MM NOT_NAMED 1931-08-04 10:00:00 NR 19.6000 127.500 main 562 555 __________O___ -1 19.6000 127.500 7 7 334
1931215N17132 1931 22 WP MM NOT_NAMED 1931-08-04 12:00:00 NR 19.8155 127.379 main 558 551 __________P___ -1 19.8155 127.379 7 8 338
1931215N17132 1931 22 WP MM NOT_NAMED 1931-08-04 15:00:00 NR 20.1766 127.253 main 561 552 __________P___ -1 20.1766 127.253 7 8 348
1931215N17132 1931 22 WP MM NOT_NAMED 1931-08-04 18:00:00 NR 20.5669 127.208 main 569 569 __________P___ -1 20.5669 127.208 7 8 0
1931215N17132 1931 22 WP MM NOT_NAMED 1931-08-04 21:00:00 NR 20.9674 127.259 main 598 598 __________P___ -1 20.9674 127.259 7 8 10
1931215N17132 1931 22 WP MM NOT_NAMED 1931-08-04 22:00:00 NR 21.1000 127.300 main 604 604 __________O___ -1 21.1000 127.300 7 8 17
1931215N17132 1931 22 WP MM NOT_NAMED 1931-08-05 00:00:00 NR 21.3496 127.384 main 624 629 __________P___ -1 21.3496 127.384 7 8 24
1931215N17132 1931 22 WP MM NOT_NAMED 1931-08-05 03:00:00 NR 21.7239 127.597 main 656 653 __________P___ -1 21.7239 127.597 7 9 33
1931215N17132 1931 22 WP MM NOT_NAMED 1931-08-05 06:00:00 NR 22.0988 127.914 main 668 668 __________P___ -1 22.0988 127.914 7 10 42
1931215N17132 1931 22 WP MM NOT_NAMED 1931-08-05 09:00:00 NR 22.4745 128.336 main 689 695 __________P___ -1 22.4745 128.336 7 11 47
1931215N17132 1931 22 WP MM NOT_NAMED 1931-08-05 10:00:00 NR 22.6000 128.500 main 705 705 __________O___ -1 22.6000 128.500 7 12 52
1931215N17132 1931 22 WP MM NOT_NAMED 1931-08-05 12:00:00 NR 22.8512 128.861 main 734 734 __________P___ -1 22.8512 128.861 7 13 55
1931215N17132 1931 22 WP MM NOT_NAMED 1931-08-05 15:00:00 NR 23.2280 129.472 main 785 783 __________P___ -1 23.2280 129.472 7 14 58
1931215N17132 1931 22 WP MM NOT_NAMED 1931-08-05 18:00:00 NR 23.6035 130.147 main 828 781 __________P___ -1 23.6035 130.147 7 15 60
1931215N17132 1931 22 WP MM NOT_NAMED 1931-08-05 21:00:00 NR 23.9764 130.859 main 781 771 __________P___ -1 23.9764 130.859 7 15 60
1931215N17132 1931 22 WP MM NOT_NAMED 1931-08-05 22:00:00 NR 24.1000 131.100 main 771 __________O___ -1 24.1000 131.100 7 15 61

Digital Typhoon Data and Search

About IBTrACS Database

This database is a web-friendly format of International Best Track Archive for Climate Stewardship (IBTrACS), a global best track data archive curated by NOAA dating back to 1842.

Updated: 2021-12-06